Time;durP1;ratioP1;P1;durP2;ratioP2;P2;SDS_P1;SDS_P2;PMS_P1;PMS_P2;Temp;Humidity;BMP_temperature;BMP_pressure;BME280_temperature;BME280_humidity;BME280_pressure;Samples;Min_cycle;Max_cycle;Signal;HPM_P1;HPM_P2
2023/05/15 00:02:11;;;;;;;15.75;14.35;;;;;;;12.96;100.00;101523.56;5069549;28;20423;-36
2023/05/15 00:04:36;;;;;;;16.90;14.18;;;;;;;13.03;100.00;101531.59;5070193;28;20056;-36
2023/05/15 00:07:01;;;;;;;;;;;;;;;13.09;100.00;101520.66;5070674;28;20051;-36
2023/05/15 00:09:27;;;;;;;15.35;13.93;;;;;;;12.91;100.00;101520.69;5069649;28;19912;-36
2023/05/15 00:11:52;;;;;;;16.80;15.20;;;;;;;12.85;100.00;101510.75;5061275;28;20060;-36
2023/05/15 00:14:18;;;;;;;17.02;15.32;;;;;;;12.86;100.00;101512.41;5056290;28;20271;-36
2023/05/15 00:16:43;;;;;;;16.57;15.07;;;;;;;12.59;100.00;101498.34;5056332;28;20025;-36
2023/05/15 00:19:08;;;;;;;17.17;15.37;;;;;;;12.73;100.00;101504.44;5056152;28;20275;-36
2023/05/15 00:21:34;;;;;;;16.30;14.80;;;;;;;12.73;100.00;101504.44;5056548;28;20722;-36
2023/05/15 00:23:59;;;;;;;16.80;15.30;;;;;;;12.71;100.00;101512.81;5055867;28;20700;-36
2023/05/15 00:26:25;;;;;;;17.02;15.35;;;;;;;12.75;100.00;101510.50;5056499;28;20021;-36
2023/05/15 00:28:50;;;;;;;16.40;14.88;;;;;;;12.74;100.00;101506.94;5056822;28;20433;-36
2023/05/15 00:31:15;;;;;;;16.77;15.27;;;;;;;12.68;100.00;101498.88;5056310;28;20052;-36
2023/05/15 00:33:41;;;;;;;16.70;15.25;;;;;;;12.72;100.00;101505.50;5056257;28;20422;-38
2023/05/15 00:36:07;;;;;;;17.23;15.68;;;;;;;12.61;100.00;101502.50;5056766;28;20466;-36
2023/05/15 00:38:32;;;;;;;21.98;16.65;;;;;;;12.56;100.00;101510.50;5056643;28;20445;-37
2023/05/15 00:41:00;;;;;;;18.08;16.27;;;;;;;12.52;100.00;101503.88;5056365;28;20033;-36
2023/05/15 00:43:25;;;;;;;17.42;15.73;;;;;;;12.37;100.00;101500.72;5055812;28;20021;-37
2023/05/15 00:45:52;;;;;;;17.83;16.08;;;;;;;12.51;100.00;101504.94;5056585;28;20017;-37
2023/05/15 00:48:18;;;;;;;17.75;15.98;;;;;;;12.35;100.00;101486.59;5055725;28;20077;-37
2023/05/15 00:50:44;;;;;;;17.50;15.77;;;;;;;12.33;100.00;101491.38;5056290;28;20024;-37
2023/05/15 00:53:10;;;;;;;18.15;16.52;;;;;;;12.29;100.00;101482.88;5055603;28;20024;-37
2023/05/15 00:55:35;;;;;;;17.65;16.02;;;;;;;12.33;100.00;101494.09;5055598;28;20039;-37
2023/05/15 00:58:02;;;;;;;18.45;16.65;;;;;;;12.35;100.00;101500.16;5055518;28;20062;-37
2023/05/15 01:00:31;;;;;;;18.38;16.58;;;;;;;12.23;100.00;101496.50;5055465;28;20044;-36
2023/05/15 01:02:57;;;;;;;17.55;15.88;;;;;;;12.14;100.00;101481.59;5055395;28;20025;-37
2023/05/15 01:05:22;;;;;;;18.33;16.63;;;;;;;12.13;100.00;101486.19;5055443;28;20028;-37
2023/05/15 01:07:55;;;;;;;18.38;16.25;;;;;;;12.10;100.00;101473.94;5055937;28;20029;-36
2023/05/15 01:10:21;;;;;;;18.20;16.30;;;;;;;12.19;100.00;101490.72;5055391;28;20021;-37
2023/05/15 01:12:51;;;;;;;17.38;15.88;;;;;;;12.11;100.00;101486.44;5055803;28;20075;-37
2023/05/15 01:15:17;;;;;;;17.50;15.70;;;;;;;12.10;100.00;101483.91;5055865;28;20021;-36
2023/05/15 01:17:42;;;;;;;17.40;15.75;;;;;;;12.00;100.00;101472.78;5055158;28;20040;-37
2023/05/15 01:20:10;;;;;;;17.92;16.10;;;;;;;12.05;100.00;101491.91;5055444;28;20115;-36
2023/05/15 01:22:59;;;;;;;17.85;16.02;;;;;;;12.04;100.00;101480.22;5054166;28;20017;-37
2023/05/15 01:25:53;;;;;;;19.05;17.08;;;;;;;12.00;100.00;101487.16;5055852;28;20369;-37
2023/05/15 01:28:24;;;;;;;18.35;16.55;;;;;;;11.92;100.00;101484.75;5054971;28;20037;-36
2023/05/15 01:30:54;;;;;;;17.45;15.60;;;;;;;11.96;100.00;101480.56;5055496;28;20033;-37
2023/05/15 01:33:24;;;;;;;18.42;16.42;;;;;;;11.94;100.00;101482.63;5054597;28;20472;-37
2023/05/15 01:35:58;;;;;;;17.75;16.10;;;;;;;11.89;100.00;101477.06;5055080;28;20025;-37
2023/05/15 01:38:56;;;;;;;17.95;16.05;;;;;;;11.88;100.00;101477.28;5055085;28;20056;-37
2023/05/15 01:41:33;;;;;;;18.90;16.48;;;;;;;11.87;100.00;101478.34;5054599;28;20519;-37
2023/05/15 01:44:07;;;;;;;19.88;17.15;;;;;;;11.84;100.00;101483.16;5054918;28;20032;-37
2023/05/15 01:46:37;;;;;;;17.92;15.85;;;;;;;11.74;100.00;101479.28;5054638;28;20027;-37
2023/05/15 01:49:03;;;;;;;19.00;17.05;;;;;;;11.75;100.00;101480.91;5054554;28;20070;-37
2023/05/15 01:51:30;;;;;;;19.65;17.38;;;;;;;11.63;100.00;101474.59;5054806;28;20021;-37
2023/05/15 01:53:58;;;;;;;19.98;17.90;;;;;;;11.60;100.00;101468.56;5054951;28;20108;-37
2023/05/15 01:56:26;;;;;;;19.58;17.67;;;;;;;11.57;100.00;101463.59;5054724;28;20025;-37
2023/05/15 01:58:52;;;;;;;19.10;17.15;;;;;;;11.61;100.00;101461.25;5055175;28;20021;-37
2023/05/15 02:01:18;;;;;;;19.40;17.58;;;;;;;11.55;100.00;101462.97;5055360;28;20342;-36
2023/05/15 02:03:44;;;;;;;;;;;;;;;11.71;100.00;101467.00;5054995;28;20412;-36
2023/05/15 02:06:11;;;;;;;19.25;17.35;;;;;;;11.57;100.00;101463.59;5054214;28;19909;-37
2023/05/15 02:08:37;;;;;;;21.08;17.98;;;;;;;11.46;100.00;101448.06;5054182;28;20369;-37
2023/05/15 02:11:02;;;;;;;;;;;;;;;11.68;100.00;101453.06;5055454;28;20107;-37
2023/05/15 02:13:29;;;;;;;20.02;18.00;;;;;;;11.55;100.00;101457.56;5054112;28;20336;-37
2023/05/15 02:15:55;;;;;;;20.75;18.75;;;;;;;11.58;100.00;101451.69;5054309;28;20450;-37
2023/05/15 02:18:20;;;;;;;20.70;18.65;;;;;;;11.47;100.00;101448.91;5053999;28;20021;-37
2023/05/15 02:20:46;;;;;;;20.42;18.52;;;;;;;11.46;100.00;101441.81;5053971;28;20029;-37
2023/05/15 02:23:11;;;;;;;25.23;19.77;;;;;;;11.45;100.00;101449.09;5053978;28;20037;-37
2023/05/15 02:26:20;;;;;;;22.00;19.70;;;;;;;11.48;100.00;101456.81;5053759;28;20029;-37
2023/05/15 02:29:04;;;;;;;21.48;19.38;;;;;;;11.48;100.00;101456.81;5040072;28;20032;-37
2023/05/15 02:31:58;;;;;;;21.95;19.83;;;;;;;11.47;100.00;101465.97;5053602;28;20028;-37
2023/05/15 02:35:16;;;;;;;22.60;20.25;;;;;;;11.46;100.00;101466.19;5054384;28;20042;-36
2023/05/15 02:37:46;;;;;;;23.43;21.00;;;;;;;11.34;100.00;101460.66;5036785;28;20071;-36
2023/05/15 02:40:14;;;;;;;22.88;20.50;;;;;;;11.30;100.00;101470.28;5054171;28;20056;-36
2023/05/15 02:42:40;;;;;;;27.05;22.25;;;;;;;11.20;100.00;101473.47;5053659;28;20029;-36
2023/05/15 02:45:08;;;;;;;23.95;21.55;;;;;;;11.29;100.00;101479.47;5053590;28;20044;-37
2023/05/15 02:47:33;;;;;;;25.17;22.77;;;;;;;11.26;100.00;101475.28;5054217;28;20024;-36
2023/05/15 02:50:00;;;;;;;24.48;22.17;;;;;;;11.28;100.00;101477.81;5053280;28;20023;-36
2023/05/15 02:52:25;;;;;;;24.75;22.35;;;;;;;11.16;100.00;101461.44;5053628;28;20036;-36
2023/05/15 02:54:51;;;;;;;25.17;22.70;;;;;;;11.24;100.00;101482.00;5054082;28;20024;-37
2023/05/15 02:57:16;;;;;;;25.30;22.55;;;;;;;11.20;100.00;101475.34;5053883;28;20408;-36
2023/05/15 02:59:42;;;;;;;24.10;22.00;;;;;;;11.22;100.00;101473.25;5053429;28;20360;-36
2023/05/15 03:02:07;;;;;;;25.17;22.70;;;;;;;11.15;100.00;101473.31;5054105;28;20021;-36
2023/05/15 03:04:32;;;;;;;26.97;24.27;;;;;;;11.16;100.00;101472.25;5053534;28;20070;-36
2023/05/15 03:06:58;;;;;;;25.80;23.23;;;;;;;11.07;100.00;101460.03;5053162;28;20615;-36
2023/05/15 03:09:26;;;;;;;26.00;23.43;;;;;;;11.07;100.00;101463.56;5054305;28;20096;-37
2023/05/15 03:11:52;;;;;;;26.08;23.55;;;;;;;10.96;100.00;101453.44;5053654;28;20255;-36
2023/05/15 03:14:17;;;;;;;27.45;24.75;;;;;;;10.97;100.00;101455.09;5053381;28;20021;-36
2023/05/15 03:16:42;;;;;;;27.67;24.97;;;;;;;10.85;100.00;101454.16;5053477;28;20025;-36
2023/05/15 03:19:08;;;;;;;27.67;24.93;;;;;;;10.85;100.00;101464.97;5053235;28;20264;-37
2023/05/15 03:21:33;;;;;;;29.23;26.20;;;;;;;10.73;100.00;101453.19;5054001;28;20401;-36
2023/05/15 03:23:59;;;;;;;29.05;26.25;;;;;;;10.83;100.00;101458.94;5053244;28;20372;-36
2023/05/15 03:26:25;;;;;;;27.48;24.63;;;;;;;10.75;100.00;101453.81;5053573;28;20025;-36
2023/05/15 03:28:51;;;;;;;28.45;25.63;;;;;;;10.79;100.00;101463.97;5054019;28;20345;-36
2023/05/15 03:31:16;;;;;;;28.65;25.65;;;;;;;10.71;100.00;101449.88;5054378;28;20058;-36
2023/05/15 03:33:44;;;;;;;28.00;25.20;;;;;;;10.75;100.00;101457.34;5053224;28;20377;-36
2023/05/15 03:36:09;;;;;;;28.98;26.05;;;;;;;10.80;100.00;101459.41;5053162;28;20021;-36
2023/05/15 03:38:35;;;;;;;28.65;25.65;;;;;;;10.75;100.00;101451.94;5053141;28;20068;-36
2023/05/15 03:41:00;;;;;;;29.60;26.27;;;;;;;10.72;100.00;101457.75;5053703;28;20048;-36
2023/05/15 03:43:25;;;;;;;29.00;25.87;;;;;;;10.70;100.00;101440.09;5052830;28;20021;-36
2023/05/15 03:45:51;;;;;;;28.90;25.90;;;;;;;10.71;100.00;101442.59;5053646;28;20762;-37
2023/05/15 03:48:16;;;;;;;28.85;25.85;;;;;;;10.71;100.00;101444.47;5056429;28;20021;-37
2023/05/15 03:50:43;;;;;;;29.87;26.63;;;;;;;10.65;100.00;101446.16;5056663;28;20053;-37
2023/05/15 03:53:09;;;;;;;30.02;26.98;;;;;;;10.61;100.00;101447.63;5056958;28;20048;-36
2023/05/15 03:55:34;;;;;;;28.42;25.60;;;;;;;10.62;100.00;101443.06;5057054;28;20020;-36
2023/05/15 03:58:00;;;;;;;29.80;26.90;;;;;;;10.61;100.00;101446.81;5056666;28;20400;-36
2023/05/15 04:00:25;;;;;;;29.92;26.88;;;;;;;10.54;100.00;101430.59;5056958;28;20107;-36
2023/05/15 04:02:51;;;;;;;30.00;26.80;;;;;;;10.64;100.00;101441.81;5056829;28;20052;-36
2023/05/15 04:05:18;;;;;;;29.43;26.40;;;;;;;10.58;100.00;101437.25;5056568;28;20103;-36
2023/05/15 04:07:43;;;;;;;30.05;26.85;;;;;;;10.54;100.00;101434.16;5056152;28;20263;-36
2023/05/15 04:10:09;;;;;;;28.45;25.52;;;;;;;10.59;100.00;101436.22;5056539;28;20373;-36
2023/05/15 04:12:34;;;;;;;29.27;26.25;;;;;;;10.60;100.00;101443.28;5056147;28;20067;-36
2023/05/15 04:15:13;;;;;;;29.15;26.20;;;;;;;10.55;100.00;101432.28;5056653;28;20021;-36
2023/05/15 04:17:39;;;;;;;29.48;26.35;;;;;;;10.58;100.00;101443.47;5056021;28;20039;-36
2023/05/15 04:20:05;;;;;;;29.87;26.03;;;;;;;10.61;100.00;101442.22;5056250;28;20025;-36
2023/05/15 04:22:31;;;;;;;27.42;24.73;;;;;;;10.57;100.00;101439.13;5057055;28;20583;-36
2023/05/15 04:24:56;;;;;;;28.08;25.17;;;;;;;10.58;100.00;101439.94;5056245;28;20025;-36
2023/05/15 04:27:22;;;;;;;28.07;24.90;;;;;;;10.53;100.00;101440.59;5056754;28;20029;-36
2023/05/15 04:29:47;;;;;;;28.83;26.00;;;;;;;10.58;100.00;101445.34;5056148;28;20068;-36
2023/05/15 04:32:12;;;;;;;28.40;25.40;;;;;;;10.55;100.00;101449.34;5055788;28;20256;-36
2023/05/15 04:34:37;;;;;;;27.03;24.13;;;;;;;10.52;100.00;101457.03;5056348;28;20052;-36
2023/05/15 04:37:03;;;;;;;26.83;24.10;;;;;;;10.53;100.00;101454.13;5056088;28;20018;-36
2023/05/15 04:39:29;;;;;;;28.40;25.52;;;;;;;10.53;100.00;101458.69;5055832;28;20754;-36
2023/05/15 04:41:55;;;;;;;25.83;23.27;;;;;;;10.51;100.00;101463.50;5056730;28;20029;-36
2023/05/15 04:44:20;;;;;;;26.52;23.33;;;;;;;10.55;100.00;101475.56;5056358;28;20445;-36
2023/05/15 04:46:45;;;;;;;26.35;23.55;;;;;;;10.53;100.00;101474.91;5056107;28;20449;-36
2023/05/15 04:49:11;;;;;;;25.97;23.50;;;;;;;10.54;100.00;101477.44;5056029;28;20441;-36
2023/05/15 04:51:36;;;;;;;25.10;22.60;;;;;;;10.52;100.00;101474.09;5055760;28;20636;-36
2023/05/15 04:54:02;;;;;;;24.80;22.35;;;;;;;10.54;100.00;101480.13;5055342;28;20025;-36
2023/05/15 04:56:27;;;;;;;25.75;22.50;;;;;;;10.56;100.00;101469.09;5056196;28;20091;-36
2023/05/15 04:58:53;;;;;;;23.25;20.83;;;;;;;10.63;100.00;101478.00;5055463;28;20067;-36
2023/05/15 05:01:18;;;;;;;23.77;21.40;;;;;;;10.58;100.00;101478.63;5055131;28;20049;-36
2023/05/15 05:03:43;;;;;;;23.13;20.93;;;;;;;10.73;100.00;101480.22;5055497;28;20068;-36
2023/05/15 05:06:08;;;;;;;23.43;21.00;;;;;;;10.77;100.00;101476.03;5055417;28;20260;-36
2023/05/15 05:08:34;;;;;;;23.10;20.90;;;;;;;10.79;100.00;101468.56;5055100;28;20032;-36
2023/05/15 05:10:59;;;;;;;23.80;21.40;;;;;;;10.82;100.00;101462.69;5056184;28;20032;-36
2023/05/15 05:13:25;;;;;;;24.27;21.07;;;;;;;10.89;100.00;101476.19;5055326;28;20074;-36
2023/05/15 05:15:50;;;;;;;22.40;20.20;;;;;;;10.94;100.00;101470.97;5055316;28;20275;-36
2023/05/15 05:18:15;;;;;;;23.73;21.20;;;;;;;10.95;100.00;101478.84;5055211;28;20024;-36
2023/05/15 05:20:41;;;;;;;22.10;20.10;;;;;;;11.01;100.00;101485.28;5055154;28;20442;-36
2023/05/15 05:23:06;;;;;;;24.23;21.75;;;;;;;10.99;100.00;101490.09;5055088;28;20632;-37
2023/05/15 05:25:32;;;;;;;22.80;20.60;;;;;;;10.96;100.00;101479.69;5055387;28;20017;-37
2023/05/15 05:27:57;;;;;;;23.57;21.03;;;;;;;10.98;100.00;101494.66;5055032;28;20337;-36
2023/05/15 05:30:22;;;;;;;23.77;21.23;;;;;;;10.95;100.00;101494.28;5054808;28;20492;-36
2023/05/15 05:32:48;;;;;;;23.17;20.97;;;;;;;11.04;100.00;101493.78;5054958;28;20475;-36
2023/05/15 05:35:13;;;;;;;24.42;22.02;;;;;;;11.11;100.00;101495.63;5055439;28;20243;-36
2023/05/15 05:37:38;;;;;;;24.67;22.17;;;;;;;11.16;100.00;101501.19;5055290;28;20106;-36
2023/05/15 05:40:05;;;;;;;24.83;22.43;;;;;;;11.20;100.00;101497.84;5054723;28;20074;-36
2023/05/15 05:42:31;;;;;;;26.27;23.65;;;;;;;11.44;100.00;101503.50;5055206;28;20270;-36
2023/05/15 05:44:56;;;;;;;24.33;21.92;;;;;;;11.44;100.00;101492.66;5054685;28;20017;-36
2023/05/15 05:47:22;;;;;;;22.90;20.70;;;;;;;11.58;100.00;101499.63;5054857;28;20374;-36
2023/05/15 05:49:47;;;;;;;24.50;21.33;;;;;;;11.61;100.00;101501.88;5054620;28;20445;-37
2023/05/15 05:52:12;;;;;;;21.17;19.10;;;;;;;11.55;100.00;101514.44;5054560;28;20032;-36
2023/05/15 05:54:38;;;;;;;21.02;18.77;;;;;;;11.58;100.00;101508.59;5054476;28;20035;-36
2023/05/15 05:57:03;;;;;;;21.33;19.13;;;;;;;11.51;100.00;101515.09;5054474;28;20029;-36
2023/05/15 05:59:29;;;;;;;21.38;19.27;;;;;;;11.44;100.00;101501.63;5054149;28;20025;-36
2023/05/15 06:01:55;;;;;;;20.58;18.38;;;;;;;11.39;100.00;101496.03;5054755;28;20041;-36
2023/05/15 06:04:20;;;;;;;21.02;18.92;;;;;;;11.46;100.00;101504.94;5054277;28;20044;-36
2023/05/15 06:06:45;;;;;;;21.97;19.47;;;;;;;11.50;100.00;101495.31;5054310;28;20025;-36
2023/05/15 06:09:11;;;;;;;21.83;19.70;;;;;;;11.67;100.00;101503.72;5054535;28;20278;-36
2023/05/15 06:11:36;;;;;;;22.53;20.27;;;;;;;11.78;100.00;101502.16;5055024;28;20024;-36
2023/05/15 06:14:01;;;;;;;23.17;20.73;;;;;;;11.83;100.00;101502.34;5054181;28;20275;-36
2023/05/15 06:16:27;;;;;;;23.25;20.88;;;;;;;11.85;100.00;101505.66;5053812;28;20485;-36
2023/05/15 06:18:52;;;;;;;21.00;18.90;;;;;;;11.88;100.00;101505.22;5053732;28;20027;-36
2023/05/15 06:21:17;;;;;;;21.83;19.77;;;;;;;11.79;100.00;101506.53;5053968;28;20341;-36
2023/05/15 06:23:43;;;;;;;23.25;20.95;;;;;;;11.79;100.00;101507.34;5053709;28;20052;-36
2023/05/15 06:26:08;;;;;;;21.60;19.52;;;;;;;11.78;100.00;101510.28;5053942;28;20052;-36
2023/05/15 06:28:34;;;;;;;22.02;19.70;;;;;;;11.70;100.00;101497.03;5053856;28;20111;-37
2023/05/15 06:30:59;;;;;;;20.80;18.02;;;;;;;11.73;100.00;101507.44;5054150;28;20021;-37
2023/05/15 06:33:24;;;;;;;20.20;18.27;;;;;;;11.78;100.00;101507.59;5053549;28;20067;-36
2023/05/15 06:35:50;;;;;;;18.77;16.93;;;;;;;11.83;100.00;101492.34;5054683;28;20256;-36
2023/05/15 06:38:16;;;;;;;18.35;16.55;;;;;;;11.98;100.00;101505.53;5053730;28;20350;-36
2023/05/15 06:40:41;;;;;;;19.35;17.45;;;;;;;12.08;100.00;101500.41;5053993;28;20139;-36
2023/05/15 06:43:07;;;;;;;18.37;16.63;;;;;;;12.31;100.00;101497.03;5053719;28;20472;-36
2023/05/15 06:45:32;;;;;;;17.90;16.05;;;;;;;12.44;100.00;101509.59;5054270;28;20099;-36
2023/05/15 06:47:57;;;;;;;16.07;14.40;;;;;;;12.59;100.00;101499.22;5054169;28;20496;-36
2023/05/15 06:50:23;;;;;;;17.37;15.67;;;;;;;12.65;100.00;101483.06;5054225;28;20029;-37
2023/05/15 06:52:48;;;;;;;16.85;15.15;;;;;;;12.67;100.00;101500.78;5053900;28;20282;-36
2023/05/15 06:55:13;;;;;;;16.03;14.43;;;;;;;12.71;100.00;101498.44;5053896;28;20476;-37
2023/05/15 06:57:39;;;;;;;14.70;13.30;;;;;;;12.81;100.00;101498.72;5053840;28;20635;-37
2023/05/15 07:00:05;;;;;;;15.53;14.03;;;;;;;12.86;100.00;101496.13;5053490;28;20299;-37
2023/05/15 07:02:30;;;;;;;14.95;13.55;;;;;;;12.86;100.00;101496.13;5053476;28;20268;-37
2023/05/15 07:04:55;;;;;;;14.77;13.18;;;;;;;13.03;100.00;101493.59;5054085;28;20025;-37
2023/05/15 07:07:21;;;;;;;15.20;13.80;;;;;;;13.18;100.00;101494.00;5053466;28;20036;-37
2023/05/15 07:09:49;;;;;;;14.83;13.30;;;;;;;13.25;100.00;101494.75;5053015;28;20167;-37
2023/05/15 07:12:14;;;;;;;14.50;13.20;;;;;;;13.38;100.00;101499.97;5053646;28;20281;-36
2023/05/15 07:14:39;;;;;;;;;;;;;;;13.62;100.00;101506.28;5053812;28;20096;-37
2023/05/15 07:17:05;;;;;;;15.23;13.75;;;;;;;13.42;97.60;101494.06;5053338;28;20242;-37
2023/05/15 07:19:30;;;;;;;16.77;15.20;;;;;;;13.63;100.00;101502.47;5054032;28;20116;-36
2023/05/15 07:21:56;;;;;;;17.97;16.30;;;;;;;13.67;99.43;101496.59;5054804;28;20027;-36
2023/05/15 07:24:21;;;;;;;17.03;15.43;;;;;;;13.77;98.34;101503.09;5057375;28;20275;-36
2023/05/15 07:26:46;;;;;;;18.02;16.35;;;;;;;13.88;98.91;101512.31;5057903;28;20274;-37
2023/05/15 07:29:11;;;;;;;17.45;15.75;;;;;;;13.90;98.36;101505.53;5057255;28;20461;-36
2023/05/15 07:31:39;;;;;;;16.83;15.32;;;;;;;13.90;98.12;101493.84;5057599;28;20060;-37
2023/05/15 07:34:04;;;;;;;17.13;15.40;;;;;;;14.10;99.80;101491.59;5057119;28;20107;-36
2023/05/15 07:36:30;;;;;;;17.65;15.93;;;;;;;14.13;99.07;101491.13;5057985;28;20103;-37
2023/05/15 07:38:55;;;;;;;;;;;;;;;14.40;100.00;101490.59;5058046;28;20104;-36
2023/05/15 07:41:21;;;;;;;16.87;15.27;;;;;;;14.28;95.73;101492.50;5056951;28;19908;-36
2023/05/15 07:43:46;;;;;;;16.95;15.25;;;;;;;14.21;95.28;101478.22;5056693;28;20286;-37
2023/05/15 07:46:11;;;;;;;15.40;13.88;;;;;;;14.25;95.40;101477.50;5057799;28;20064;-37
2023/05/15 07:48:36;;;;;;;;;;;;;;;14.56;98.38;101495.31;5057346;28;20021;-37
2023/05/15 07:51:02;;;;;;;16.40;14.70;;;;;;;14.47;95.03;101474.94;5057697;28;19927;-37
2023/05/15 07:53:27;;;;;;;15.88;14.48;;;;;;;14.53;95.20;101484.06;5056797;28;20619;-37
2023/05/15 07:55:53;;;;;;;;;;;;;;;14.78;98.44;101479.13;5056999;28;20024;-37
2023/05/15 07:58:18;;;;;;;15.27;13.77;;;;;;;14.65;94.50;101472.09;5056712;28;20272;-36
2023/05/15 08:00:43;;;;;;;;;;;;;;;14.87;97.64;101474.13;5057073;28;20053;-37
2023/05/15 08:03:10;;;;;;;15.57;14.05;;;;;;;14.74;93.54;101477.13;5056594;28;20007;-37
2023/05/15 08:05:35;;;;;;;13.75;12.30;;;;;;;14.72;91.60;101471.94;5056560;28;20028;-37
2023/05/15 08:08:00;;;;;;;13.17;11.90;;;;;;;14.84;91.31;101469.16;5056219;28;20021;-37
2023/05/15 08:10:26;;;;;;;13.07;11.88;;;;;;;14.93;89.32;101479.44;5057067;28;20263;-37
2023/05/15 08:12:51;;;;;;;12.80;11.50;;;;;;;14.96;88.56;101461.75;5056668;28;20024;-37
2023/05/15 08:15:16;;;;;;;;;;;;;;;15.21;91.40;101469.53;5056593;28;20056;-36
2023/05/15 08:17:42;;;;;;;13.10;11.90;;;;;;;15.11;89.40;101462.03;5054794;28;20379;-37
2023/05/15 08:20:08;;;;;;;;;;;;;;;15.29;91.66;101471.88;5056944;28;20108;-37
2023/05/15 08:22:33;;;;;;;12.50;11.30;;;;;;;15.24;87.93;101452.72;5056278;28;19979;-37
2023/05/15 08:24:59;;;;;;;;;;;;;;;15.56;91.21;101472.00;5056755;28;20021;-37
2023/05/15 08:27:25;;;;;;;12.63;11.50;;;;;;;15.57;87.12;101468.25;5056474;28;20011;-37
2023/05/15 08:29:51;;;;;;;15.32;13.45;;;;;;;15.06;87.99;101459.22;5056121;28;20029;-37
2023/05/15 08:32:17;;;;;;;13.68;12.48;;;;;;;15.18;89.99;101467.31;5055399;28;20025;-37
2023/05/15 08:34:43;;;;;;;13.98;12.18;;;;;;;15.18;90.76;101459.97;5056298;28;20112;-37
2023/05/15 08:37:08;;;;;;;13.73;12.32;;;;;;;15.34;91.96;101471.13;5056317;28;20025;-37
2023/05/15 08:39:34;;;;;;;;;;;;;;;15.46;91.20;101483.56;5056360;28;20147;-46
2023/05/15 08:42:18;;;;;;;13.38;12.18;;;;;;;15.36;91.92;101479.88;5056199;28;19909;-37
2023/05/15 08:44:44;;;;;;;14.07;12.65;;;;;;;15.37;92.15;101473.34;5055661;28;20021;-37
2023/05/15 08:47:10;;;;;;;14.45;13.05;;;;;;;15.33;91.60;101466.75;5055550;28;20374;-36
2023/05/15 08:49:59;;;;;;;14.73;13.27;;;;;;;15.48;92.46;101482.53;5055677;28;20472;-37
2023/05/15 08:52:25;;;;;;;15.48;13.70;;;;;;;15.54;92.99;101470.63;5056299;28;20342;-37
2023/05/15 08:54:51;;;;;;;14.10;12.70;;;;;;;15.59;92.60;101479.69;5055605;28;20040;-37
2023/05/15 08:57:17;;;;;;;15.10;13.57;;;;;;;15.67;90.87;101462.97;5055708;28;20021;-37
2023/05/15 08:59:42;;;;;;;14.70;13.30;;;;;;;15.78;90.51;101461.22;5055279;28;20025;-37
2023/05/15 09:02:08;;;;;;;;;;;;;;;15.99;91.96;101470.50;5056672;28;20045;-37
2023/05/15 09:04:33;;;;;;;15.50;14.00;;;;;;;15.75;89.79;101452.69;5055459;28;19916;-37
2023/05/15 09:07:00;;;;;;;;;;;;;;;15.75;89.42;101463.59;5056501;28;20024;-37
2023/05/15 09:09:26;;;;;;;16.07;14.47;;;;;;;15.76;92.59;101459.78;5055646;28;19913;-37
2023/05/15 09:11:52;;;;;;;14.73;13.35;;;;;;;15.91;91.99;101468.22;5055639;28;20354;-37
2023/05/15 09:14:18;;;;;;;;;;;;;;;16.25;91.20;101455.31;5055745;28;20079;-37
2023/05/15 09:16:45;;;;;;;13.65;12.43;;;;;;;16.45;87.71;101465.66;5055548;28;19952;-37
2023/05/15 09:19:12;;;;;;;13.77;12.40;;;;;;;16.68;87.49;101462.59;5055696;28;20323;-37
2023/05/15 09:21:38;;;;;;;13.90;12.50;;;;;;;16.69;83.94;101467.00;5054898;28;20040;-37
2023/05/15 09:24:18;;;;;;;;;;;;;;;16.89;84.05;101465.59;5055532;28;20063;-37
2023/05/15 09:26:45;;;;;;;11.88;10.70;;;;;;;16.66;80.83;101462.06;5055587;28;19934;-37
2023/05/15 09:29:11;;;;;;;13.75;11.10;;;;;;;16.66;80.83;101453.88;5054699;28;20439;-37
2023/05/15 09:31:36;;;;;;;;;;;;;;;16.89;83.63;101465.59;5055992;28;20029;-37
2023/05/15 09:34:04;;;;;;;12.02;10.82;;;;;;;16.70;80.28;101465.09;5055696;28;20003;-37
2023/05/15 09:36:31;;;;;;;12.57;11.38;;;;;;;16.61;82.16;101455.72;5055673;28;20045;-37
2023/05/15 09:38:58;;;;;;;12.48;11.15;;;;;;;16.58;81.66;101475.31;5055026;28;20509;-37
2023/05/15 09:41:25;;;;;;;12.63;11.43;;;;;;;16.39;83.13;101470.19;5054494;28;20461;-37
2023/05/15 09:43:51;;;;;;;13.18;12.07;;;;;;;16.27;84.49;101450.41;5053568;28;20533;-37
2023/05/15 09:46:16;;;;;;;;;;;;;;;16.43;85.92;101465.06;5055371;28;20060;-37
2023/05/15 09:48:41;;;;;;;12.82;11.40;;;;;;;16.21;85.48;101474.09;5054650;28;19995;-37
2023/05/15 09:51:14;;;;;;;;;;;;;;;16.36;86.65;101472.63;5054814;28;20120;-37
2023/05/15 09:53:39;;;;;;;12.45;11.20;;;;;;;16.10;86.73;101469.53;5055016;28;19974;-37
2023/05/15 09:56:05;;;;;;;12.27;11.10;;;;;;;15.93;87.28;101464.16;5055100;28;20025;-37
2023/05/15 09:58:30;;;;;;;;;;;;;;;16.16;88.02;101478.66;5054816;28;20368;-37
2023/05/15 10:00:58;;;;;;;12.55;11.23;;;;;;;16.07;88.22;101472.81;5053870;28;19920;-37
2023/05/15 10:03:23;;;;;;;12.80;11.60;;;;;;;16.04;89.94;101461.56;5055590;28;20048;-37
2023/05/15 10:05:49;;;;;;;13.13;11.93;;;;;;;16.11;90.78;101484.03;5054028;28;20029;-37
2023/05/15 10:08:15;;;;;;;;;;;;;;;16.22;89.97;101486.63;5054681;28;20025;-37
2023/05/15 10:10:41;;;;;;;14.30;12.85;;;;;;;16.05;89.92;101485.03;5054550;28;20339;-37
2023/05/15 10:13:08;;;;;;;13.40;12.15;;;;;;;16.03;90.51;101484.47;5053854;28;20039;-37
2023/05/15 10:15:34;;;;;;;14.50;13.13;;;;;;;15.95;91.35;101480.25;5054984;28;20028;-37
2023/05/15 10:18:02;;;;;;;13.38;12.25;;;;;;;16.04;92.18;101484.22;5053853;28;20017;-37
2023/05/15 10:20:28;;;;;;;13.40;12.20;;;;;;;16.05;91.78;101490.47;5053710;28;20033;-37
2023/05/15 10:22:55;;;;;;;14.18;12.77;;;;;;;16.00;91.80;101490.41;5054277;28;20021;-37
2023/05/15 10:25:23;;;;;;;14.13;12.73;;;;;;;15.93;90.94;101490.59;5054290;28;20032;-37
2023/05/15 10:27:50;;;;;;;14.43;13.20;;;;;;;15.91;92.08;101484.59;5054233;28;20029;-37
2023/05/15 10:30:16;;;;;;;14.90;13.70;;;;;;;15.88;93.64;101480.44;5054766;28;20106;-37
2023/05/15 10:32:43;;;;;;;14.90;13.50;;;;;;;15.90;92.72;101493.81;5053846;28;20021;-37
2023/05/15 10:35:13;;;;;;;14.38;13.13;;;;;;;15.88;92.88;101490.53;5054134;28;20024;-37
2023/05/15 10:37:39;;;;;;;14.57;13.18;;;;;;;15.83;92.52;101483.09;5054070;28;20074;-37
2023/05/15 10:40:06;;;;;;;;;;;;;;;16.05;92.43;101491.31;5054676;28;20017;-37
2023/05/15 10:42:33;;;;;;;14.02;12.60;;;;;;;15.95;92.60;101492.00;5054783;28;20249;-37
2023/05/15 10:45:01;;;;;;;14.15;12.93;;;;;;;15.90;91.97;101485.63;5054262;28;20111;-37
2023/05/15 10:47:30;;;;;;;14.57;13.27;;;;;;;15.89;92.41;101486.72;5054278;28;20032;-37
2023/05/15 10:49:57;;;;;;;14.40;12.98;;;;;;;15.90;93.78;101482.91;5053579;28;20074;-37
2023/05/15 10:52:23;;;;;;;15.48;14.07;;;;;;;15.83;92.72;101480.38;5053889;28;20075;-37
2023/05/15 10:54:51;;;;;;;14.15;12.82;;;;;;;15.83;92.85;101485.00;5053726;28;20029;-36
2023/05/15 10:57:16;;;;;;;16.88;14.05;;;;;;;15.81;95.39;101478.97;5053558;28;20025;-36
2023/05/15 10:59:43;;;;;;;16.55;14.77;;;;;;;15.70;94.25;101484.25;5053397;28;20028;-36
2023/05/15 11:02:29;;;;;;;15.30;13.90;;;;;;;15.75;95.56;101486.25;5053743;28;20041;-36
2023/05/15 11:04:59;;;;;;;16.97;15.27;;;;;;;15.60;95.52;101488.72;5053507;28;20021;-36
2023/05/15 11:07:25;;;;;;;16.27;14.57;;;;;;;15.57;95.85;101489.22;5054303;28;20021;-36
2023/05/15 11:09:51;;;;;;;15.43;13.93;;;;;;;15.50;96.35;101489.38;5053193;28;20413;-36